LESO/EAS METAR and TAF weather

Enter ICAO airport designator
Station Type Date Time Source
LESO METAR 2024/06/14 03:30 UTC NOAA

LESO 140330Z AUTO VRB02KT CAVOK 18/14 Q1014


Station Type Date Time Source
LESO Decoded METAR 2024/06/14 03:30 UTC NOAA

San Sebastian / Fuenterrabia, Spain (LESO) 43-21N 001-48W 8M
Jun 13, 2024 - 11:30 PM EDT / 2024.06.14 0330 UTC
Wind: Variable at 2 MPH (2 KT):0
Visibility: greater than 7 mile(s):0
Temperature: 64 F (18 C)
Dew Point: 57 F (14 C)
Relative Humidity: 77%
Pressure (altimeter): 29.94 in. Hg (1014 hPa)
ob: LESO 140330Z AUTO VRB02KT CAVOK 18/14 Q1014
cycle: 3

Station Type Date Time Source
LESO TAF 2024/06/13 18:27 UTC NOAA